Hawley, Minnesota
Current Conditions -  °F | °C
As of 10:12 PM on Tuesday 27 Jan 2015 (Local Time) from KJKJ Reporting Station
Overcast Overcast  
Wind Chill: 22°   Ceiling: 700
Heat Index: 34°   Visibility: 10mi
Dew Point: 34°   Wind: 20mph
Humidity: 100%   Direction: 150°SSE
Pressure: 29.94"   Gusts: 25mph
Location:  46.88°N, 96.32°W
Report Text: KJKJ 280412Z AUTO 15017G22KT 10SM OVC007 01/01 A2994 RMK AO2
Loading
Personal Weather Stations






























Interactive Weather Map New forecast layout! Learn more

10-Day Weather Forecast

Advertisements
Track Severe Weather on mobile